Marquette, MI

4:57 AM EDT on September 17, 2014 (GMT -0400)
Harvey, MI | Change Station
CLOSE
Current Station
Personal Weather Station
Location: Marquette, MI
Elevation: 725 ft
Nearby Weather Stations
Active Advisory: Frost Advisory

Elev 725 ft 46.47 °N, 87.37 °W | Updated 4 minutes ago

Overcast
Overcast
44.9 °F
Feels Like 45 °F
N
0.0
Wind Variable Wind from ENE
Gusts 0.0 mph

Today
High -- | Low -- °F
--% Chance of Precip.
Yesterday
High -- | Low -- °F
Precip. -- in
7:29 AM 7:56 PM
Last Quarter, 38% visible
Pressure 29.94 in
Visibility 10.0 miles
Clouds Overcast 11000 ft
Windchill 45 °F
Dew Point 43 °F
Humidity 91%
Rainfall 0.00 in
Snow Depth Not available.
UV 0.0 out of 12
Pollen 4.20 out of 12
PM2.5 Good
Flu Activity Not available.
METAR KSAW 170837Z AUTO 19004KT 10SM OVC110 08/07 A2994 RMK AO2 T00820066

More Conditions Fewer Conditions

Pressure 29.94 in
Visibility 10.0 miles
Clouds Overcast 11000 ft
Windchill 45 °F
Dew Point 43 °F
Humidity 91%
Rainfall 0.00 in
Snow Depth Not available.
UV 0.0 out of 12
Pollen 4.20 out of 12
PM2.5 Good
Flu Activity Not available.
METAR KSAW 170837Z AUTO 19004KT 10SM OVC110 08/07 A2994 RMK AO2 T00820066

More Conditions Fewer Conditions

10-Day Weather Forecast

Almanac

Astronomy

Sep. 17, 2014 Rise Set
Actual Time 7:29 AM EDT 7:56 PM EDT
Civil Twilight 6:59 AM EDT 8:27 PM EDT
Nautical Twilight 6:23 AM EDT 9:02 PM EDT
Astronomical Twilight 5:46 AM EDT 9:39 PM EDT
Moon 1:14 AM EDT 4:20 PM EDT
Length of Visible Light 13h 27m
Length of Day
12h 27m
Tomorrow will be 3m 15s shorter.
Last Quarter, 38% of the Moon is Illuminated
Today
Last Quarter
Sep 24
New
Oct 1
First Quarter
Oct 8
Full
Oct 15
Last Quarter

Today's Extremes

State Highs State Lows

Community

WunderPhotos

Upload Photos

1,753,990 photos uploaded!

Nearby

Air Quality

  Air Quality AQ Index Pollutant
Yesterday Good
OZONE
Yesterday Good
PM2.5
Current Good
PM2.5
Wednesday Good
OZONE
Wednesday Good
PM2.5
Thursday Good
OZONE
Thursday Good
PM2.5
Friday Good
OZONE
Friday Good
PM2.5
Saturday Good
OZONE
Saturday Good
PM2.5

Snow Depth

Station Depth Elevation
No new snow has been reported.

Earthquake Activity

City Distance Mag. Time & Date
No recent earthquake activity has been reported nearby.
Minimum magnitude displayed is 2.5.

Coastal Water Temperatures

Place Temperature
Port Inland, MI 61.0 °F

Nearby Weather Stations